sensor_id;sensor_type;location;lat;lon;timestamp;P1;durP1;ratioP1;P2;durP2;ratioP2
46198;SDS011;31928;52.104;10.030;2023-01-19T00:01:40;9.38;;;8.68;;
46198;SDS011;31928;52.104;10.030;2023-01-19T00:04:07;8.85;;;8.13;;
46198;SDS011;31928;52.104;10.030;2023-01-19T00:06:33;9.07;;;8.38;;
46198;SDS011;31928;52.104;10.030;2023-01-19T00:09:00;9.13;;;8.43;;
46198;SDS011;31928;52.104;10.030;2023-01-19T00:11:27;9.30;;;8.50;;
46198;SDS011;31928;52.104;10.030;2023-01-19T00:13:53;9.63;;;8.77;;
46198;SDS011;31928;52.104;10.030;2023-01-19T00:16:20;9.98;;;9.15;;
46198;SDS011;31928;52.104;10.030;2023-01-19T00:18:51;9.82;;;9.07;;
46198;SDS011;31928;52.104;10.030;2023-01-19T00:21:18;9.70;;;8.90;;
46198;SDS011;31928;52.104;10.030;2023-01-19T00:23:47;10.32;;;9.40;;
46198;SDS011;31928;52.104;10.030;2023-01-19T00:26:14;9.40;;;8.43;;
46198;SDS011;31928;52.104;10.030;2023-01-19T00:28:42;9.80;;;9.00;;
46198;SDS011;31928;52.104;10.030;2023-01-19T00:31:10;9.13;;;8.43;;
46198;SDS011;31928;52.104;10.030;2023-01-19T00:33:37;10.90;;;10.00;;
46198;SDS011;31928;52.104;10.030;2023-01-19T00:36:03;11.07;;;10.10;;
46198;SDS011;31928;52.104;10.030;2023-01-19T00:38:30;10.63;;;9.82;;
46198;SDS011;31928;52.104;10.030;2023-01-19T00:40:57;10.57;;;9.70;;
46198;SDS011;31928;52.104;10.030;2023-01-19T00:43:23;10.57;;;9.68;;
46198;SDS011;31928;52.104;10.030;2023-01-19T00:45:50;9.63;;;8.93;;
46198;SDS011;31928;52.104;10.030;2023-01-19T00:48:16;9.00;;;8.30;;
46198;SDS011;31928;52.104;10.030;2023-01-19T00:50:43;9.70;;;8.90;;
46198;SDS011;31928;52.104;10.030;2023-01-19T00:53:09;9.75;;;9.00;;
46198;SDS011;31928;52.104;10.030;2023-01-19T00:55:36;9.80;;;9.00;;
46198;SDS011;31928;52.104;10.030;2023-01-19T00:58:02;9.63;;;8.82;;
46198;SDS011;31928;52.104;10.030;2023-01-19T01:00:29;10.00;;;9.00;;
46198;SDS011;31928;52.104;10.030;2023-01-19T01:02:56;9.38;;;8.68;;
46198;SDS011;31928;52.104;10.030;2023-01-19T01:05:22;10.80;;;9.90;;
46198;SDS011;31928;52.104;10.030;2023-01-19T01:07:49;9.80;;;9.00;;
46198;SDS011;31928;52.104;10.030;2023-01-19T01:10:17;10.15;;;9.23;;
46198;SDS011;31928;52.104;10.030;2023-01-19T01:12:48;11.52;;;10.40;;
46198;SDS011;31928;52.104;10.030;2023-01-19T01:15:24;10.73;;;9.88;;
46198;SDS011;31928;52.104;10.030;2023-01-19T01:17:52;9.52;;;8.70;;
46198;SDS011;31928;52.104;10.030;2023-01-19T01:20:21;10.57;;;9.35;;
46198;SDS011;31928;52.104;10.030;2023-01-19T01:22:51;10.80;;;9.90;;
46198;SDS011;31928;52.104;10.030;2023-01-19T01:25:19;9.93;;;9.13;;
46198;SDS011;31928;52.104;10.030;2023-01-19T01:27:47;11.43;;;10.40;;
46198;SDS011;31928;52.104;10.030;2023-01-19T01:30:15;9.30;;;8.73;;
46198;SDS011;31928;52.104;10.030;2023-01-19T01:32:41;10.10;;;9.30;;
46198;SDS011;31928;52.104;10.030;2023-01-19T01:35:09;9.45;;;8.73;;
46198;SDS011;31928;52.104;10.030;2023-01-19T01:37:37;11.82;;;10.82;;
46198;SDS011;31928;52.104;10.030;2023-01-19T01:40:04;9.43;;;8.73;;
46198;SDS011;31928;52.104;10.030;2023-01-19T01:42:32;9.30;;;8.63;;
46198;SDS011;31928;52.104;10.030;2023-01-19T01:45:00;10.73;;;9.63;;
46198;SDS011;31928;52.104;10.030;2023-01-19T01:47:41;9.32;;;8.70;;
46198;SDS011;31928;52.104;10.030;2023-01-19T01:50:19;10.55;;;9.65;;
46198;SDS011;31928;52.104;10.030;2023-01-19T01:52:54;9.80;;;9.13;;
46198;SDS011;31928;52.104;10.030;2023-01-19T01:55:33;9.23;;;8.50;;
46198;SDS011;31928;52.104;10.030;2023-01-19T01:58:07;9.52;;;8.80;;
46198;SDS011;31928;52.104;10.030;2023-01-19T02:00:36;9.75;;;9.05;;
46198;SDS011;31928;52.104;10.030;2023-01-19T02:03:23;10.05;;;9.25;;
46198;SDS011;31928;52.104;10.030;2023-01-19T02:05:51;10.63;;;9.68;;
46198;SDS011;31928;52.104;10.030;2023-01-19T02:11:15;9.10;;;8.30;;
46198;SDS011;31928;52.104;10.030;2023-01-19T02:14:02;9.10;;;8.43;;
46198;SDS011;31928;52.104;10.030;2023-01-19T02:16:30;9.57;;;8.93;;
46198;SDS011;31928;52.104;10.030;2023-01-19T02:21:30;9.63;;;8.82;;
46198;SDS011;31928;52.104;10.030;2023-01-19T02:24:03;9.93;;;9.13;;
46198;SDS011;31928;52.104;10.030;2023-01-19T02:26:39;9.23;;;8.43;;
46198;SDS011;31928;52.104;10.030;2023-01-19T02:29:09;11.07;;;10.18;;
46198;SDS011;31928;52.104;10.030;2023-01-19T02:31:38;8.85;;;8.15;;
46198;SDS011;31928;52.104;10.030;2023-01-19T02:34:06;8.98;;;8.27;;
46198;SDS011;31928;52.104;10.030;2023-01-19T02:39:37;8.80;;;8.00;;
46198;SDS011;31928;52.104;10.030;2023-01-19T02:42:09;9.38;;;8.52;;
46198;SDS011;31928;52.104;10.030;2023-01-19T02:44:39;10.18;;;9.27;;
46198;SDS011;31928;52.104;10.030;2023-01-19T02:47:10;9.38;;;8.68;;
46198;SDS011;31928;52.104;10.030;2023-01-19T02:49:38;10.07;;;9.35;;
46198;SDS011;31928;52.104;10.030;2023-01-19T02:52:05;9.32;;;8.65;;
46198;SDS011;31928;52.104;10.030;2023-01-19T03:03:28;10.05;;;9.25;;
46198;SDS011;31928;52.104;10.030;2023-01-19T03:06:05;8.77;;;8.15;;
46198;SDS011;31928;52.104;10.030;2023-01-19T03:08:59;10.73;;;9.82;;
46198;SDS011;31928;52.104;10.030;2023-01-19T03:11:33;9.00;;;8.20;;
46198;SDS011;31928;52.104;10.030;2023-01-19T03:14:08;9.57;;;8.88;;
46198;SDS011;31928;52.104;10.030;2023-01-19T03:16:46;9.00;;;8.30;;
46198;SDS011;31928;52.104;10.030;2023-01-19T03:19:20;9.68;;;8.88;;
46198;SDS011;31928;52.104;10.030;2023-01-19T03:21:51;8.38;;;7.78;;
46198;SDS011;31928;52.104;10.030;2023-01-19T03:24:23;8.00;;;7.43;;
46198;SDS011;31928;52.104;10.030;2023-01-19T03:26:53;8.65;;;8.05;;
46198;SDS011;31928;52.104;10.030;2023-01-19T03:29:33;9.80;;;8.52;;
46198;SDS011;31928;52.104;10.030;2023-01-19T03:32:06;9.88;;;9.07;;
46198;SDS011;31928;52.104;10.030;2023-01-19T03:34:37;9.82;;;9.02;;
46198;SDS011;31928;52.104;10.030;2023-01-19T03:37:05;8.32;;;7.63;;
46198;SDS011;31928;52.104;10.030;2023-01-19T03:39:35;8.57;;;7.85;;
46198;SDS011;31928;52.104;10.030;2023-01-19T03:44:32;8.35;;;7.70;;
46198;SDS011;31928;52.104;10.030;2023-01-19T03:47:02;9.30;;;8.60;;
46198;SDS011;31928;52.104;10.030;2023-01-19T03:49:31;9.65;;;8.93;;
46198;SDS011;31928;52.104;10.030;2023-01-19T03:52:00;9.43;;;8.52;;
46198;SDS011;31928;52.104;10.030;2023-01-19T03:54:26;9.88;;;9.07;;
46198;SDS011;31928;52.104;10.030;2023-01-19T03:56:53;9.38;;;8.68;;
46198;SDS011;31928;52.104;10.030;2023-01-19T03:59:19;9.25;;;8.55;;
46198;SDS011;31928;52.104;10.030;2023-01-19T04:01:47;9.50;;;8.70;;
46198;SDS011;31928;52.104;10.030;2023-01-19T04:04:14;8.05;;;7.45;;
46198;SDS011;31928;52.104;10.030;2023-01-19T04:06:41;8.45;;;7.88;;
46198;SDS011;31928;52.104;10.030;2023-01-19T04:09:08;8.45;;;7.85;;
46198;SDS011;31928;52.104;10.030;2023-01-19T04:11:35;9.45;;;8.73;;
46198;SDS011;31928;52.104;10.030;2023-01-19T04:14:01;8.68;;;8.07;;
46198;SDS011;31928;52.104;10.030;2023-01-19T04:16:28;9.50;;;8.68;;
46198;SDS011;31928;52.104;10.030;2023-01-19T04:18:54;8.52;;;7.93;;
46198;SDS011;31928;52.104;10.030;2023-01-19T04:21:21;8.82;;;7.97;;
46198;SDS011;31928;52.104;10.030;2023-01-19T04:23:48;9.25;;;8.55;;
46198;SDS011;31928;52.104;10.030;2023-01-19T04:26:15;9.18;;;8.32;;
46198;SDS011;31928;52.104;10.030;2023-01-19T04:28:41;8.77;;;8.10;;
46198;SDS011;31928;52.104;10.030;2023-01-19T04:31:08;7.97;;;7.47;;
46198;SDS011;31928;52.104;10.030;2023-01-19T04:33:35;8.75;;;8.15;;
46198;SDS011;31928;52.104;10.030;2023-01-19T04:36:01;8.25;;;7.68;;
46198;SDS011;31928;52.104;10.030;2023-01-19T04:38:29;9.07;;;8.48;;
46198;SDS011;31928;52.104;10.030;2023-01-19T04:40:55;9.80;;;9.10;;
46198;SDS011;31928;52.104;10.030;2023-01-19T04:43:22;11.75;;;10.68;;
46198;SDS011;31928;52.104;10.030;2023-01-19T04:45:49;15.02;;;13.48;;
46198;SDS011;31928;52.104;10.030;2023-01-19T04:48:17;13.85;;;12.52;;
46198;SDS011;31928;52.104;10.030;2023-01-19T04:50:44;13.45;;;12.35;;
46198;SDS011;31928;52.104;10.030;2023-01-19T04:53:11;10.13;;;9.32;;
46198;SDS011;31928;52.104;10.030;2023-01-19T04:55:38;9.93;;;9.23;;
46198;SDS011;31928;52.104;10.030;2023-01-19T05:00:32;7.88;;;7.38;;
46198;SDS011;31928;52.104;10.030;2023-01-19T05:02:59;8.60;;;7.97;;
46198;SDS011;31928;52.104;10.030;2023-01-19T05:05:27;7.80;;;7.10;;
46198;SDS011;31928;52.104;10.030;2023-01-19T05:07:53;8.63;;;7.93;;
46198;SDS011;31928;52.104;10.030;2023-01-19T05:10:20;10.75;;;9.07;;
46198;SDS011;31928;52.104;10.030;2023-01-19T05:12:47;19.63;;;8.70;;
46198;SDS011;31928;52.104;10.030;2023-01-19T05:15:13;8.82;;;8.05;;
46198;SDS011;31928;52.104;10.030;2023-01-19T05:17:40;9.75;;;8.88;;
46198;SDS011;31928;52.104;10.030;2023-01-19T05:20:08;8.65;;;7.90;;
46198;SDS011;31928;52.104;10.030;2023-01-19T05:22:36;8.65;;;7.90;;
46198;SDS011;31928;52.104;10.030;2023-01-19T05:25:04;8.77;;;8.07;;
46198;SDS011;31928;52.104;10.030;2023-01-19T05:27:34;10.40;;;9.60;;
46198;SDS011;31928;52.104;10.030;2023-01-19T05:30:01;11.50;;;10.70;;
46198;SDS011;31928;52.104;10.030;2023-01-19T05:32:30;10.55;;;9.63;;
46198;SDS011;31928;52.104;10.030;2023-01-19T05:34:56;19.42;;;17.75;;
46198;SDS011;31928;52.104;10.030;2023-01-19T05:37:23;11.20;;;10.30;;
46198;SDS011;31928;52.104;10.030;2023-01-19T05:39:49;8.63;;;8.02;;
46198;SDS011;31928;52.104;10.030;2023-01-19T05:44:52;9.00;;;8.25;;
46198;SDS011;31928;52.104;10.030;2023-01-19T05:47:19;8.38;;;7.68;;
46198;SDS011;31928;52.104;10.030;2023-01-19T05:49:45;9.15;;;8.35;;
46198;SDS011;31928;52.104;10.030;2023-01-19T05:52:12;9.02;;;8.30;;
46198;SDS011;31928;52.104;10.030;2023-01-19T05:54:38;8.77;;;8.07;;
46198;SDS011;31928;52.104;10.030;2023-01-19T05:59:34;9.77;;;8.88;;
46198;SDS011;31928;52.104;10.030;2023-01-19T06:02:01;10.13;;;9.15;;
46198;SDS011;31928;52.104;10.030;2023-01-19T06:06:55;11.35;;;10.40;;
46198;SDS011;31928;52.104;10.030;2023-01-19T06:09:43;10.93;;;10.05;;
46198;SDS011;31928;52.104;10.030;2023-01-19T06:12:10;11.75;;;10.88;;
46198;SDS011;31928;52.104;10.030;2023-01-19T06:14:36;13.55;;;12.35;;
46198;SDS011;31928;52.104;10.030;2023-01-19T06:19:31;11.68;;;10.77;;
46198;SDS011;31928;52.104;10.030;2023-01-19T06:21:57;10.90;;;10.07;;
46198;SDS011;31928;52.104;10.030;2023-01-19T06:24:24;11.68;;;10.77;;
46198;SDS011;31928;52.104;10.030;2023-01-19T06:26:51;10.77;;;9.93;;
46198;SDS011;31928;52.104;10.030;2023-01-19T06:29:18;11.85;;;10.77;;
46198;SDS011;31928;52.104;10.030;2023-01-19T06:31:59;9.77;;;8.88;;
46198;SDS011;31928;52.104;10.030;2023-01-19T06:34:26;10.32;;;9.52;;
46198;SDS011;31928;52.104;10.030;2023-01-19T06:36:54;12.23;;;11.20;;
46198;SDS011;31928;52.104;10.030;2023-01-19T06:39:21;11.35;;;10.35;;
46198;SDS011;31928;52.104;10.030;2023-01-19T06:41:48;9.90;;;9.18;;
46198;SDS011;31928;52.104;10.030;2023-01-19T06:44:14;11.05;;;10.20;;
46198;SDS011;31928;52.104;10.030;2023-01-19T06:46:41;12.27;;;11.05;;
46198;SDS011;31928;52.104;10.030;2023-01-19T06:49:08;11.02;;;9.90;;
46198;SDS011;31928;52.104;10.030;2023-01-19T06:51:34;10.85;;;9.88;;
46198;SDS011;31928;52.104;10.030;2023-01-19T06:54:01;10.98;;;9.98;;
46198;SDS011;31928;52.104;10.030;2023-01-19T06:56:27;11.73;;;10.20;;
46198;SDS011;31928;52.104;10.030;2023-01-19T06:58:54;11.75;;;10.63;;
46198;SDS011;31928;52.104;10.030;2023-01-19T07:01:20;11.18;;;10.27;;
46198;SDS011;31928;52.104;10.030;2023-01-19T07:03:47;11.90;;;10.80;;
46198;SDS011;31928;52.104;10.030;2023-01-19T07:06:14;12.23;;;11.30;;
46198;SDS011;31928;52.104;10.030;2023-01-19T07:08:40;9.90;;;9.10;;
46198;SDS011;31928;52.104;10.030;2023-01-19T07:11:08;10.50;;;9.60;;
46198;SDS011;31928;52.104;10.030;2023-01-19T07:13:56;11.48;;;10.50;;
46198;SDS011;31928;52.104;10.030;2023-01-19T07:16:23;9.32;;;8.50;;
46198;SDS011;31928;52.104;10.030;2023-01-19T07:18:50;10.82;;;9.75;;
46198;SDS011;31928;52.104;10.030;2023-01-19T07:21:16;10.85;;;9.95;;
46198;SDS011;31928;52.104;10.030;2023-01-19T07:23:43;12.75;;;11.57;;
46198;SDS011;31928;52.104;10.030;2023-01-19T07:26:12;12.45;;;11.43;;
46198;SDS011;31928;52.104;10.030;2023-01-19T07:28:41;12.85;;;11.75;;
46198;SDS011;31928;52.104;10.030;2023-01-19T07:31:08;11.85;;;10.63;;
46198;SDS011;31928;52.104;10.030;2023-01-19T07:33:35;11.05;;;10.10;;
46198;SDS011;31928;52.104;10.030;2023-01-19T07:36:02;12.27;;;11.18;;
46198;SDS011;31928;52.104;10.030;2023-01-19T07:38:28;12.93;;;11.65;;
46198;SDS011;31928;52.104;10.030;2023-01-19T07:41:02;16.13;;;14.63;;
46198;SDS011;31928;52.104;10.030;2023-01-19T07:43:29;12.18;;;11.30;;
46198;SDS011;31928;52.104;10.030;2023-01-19T07:45:56;19.10;;;17.25;;
46198;SDS011;31928;52.104;10.030;2023-01-19T07:48:24;14.85;;;13.65;;
46198;SDS011;31928;52.104;10.030;2023-01-19T07:53:17;13.80;;;12.57;;
46198;SDS011;31928;52.104;10.030;2023-01-19T07:55:44;11.13;;;10.20;;
46198;SDS011;31928;52.104;10.030;2023-01-19T07:58:11;11.80;;;10.75;;
46198;SDS011;31928;52.104;10.030;2023-01-19T08:00:37;10.80;;;9.98;;
46198;SDS011;31928;52.104;10.030;2023-01-19T08:05:31;12.18;;;11.07;;
46198;SDS011;31928;52.104;10.030;2023-01-19T08:07:58;10.90;;;10.00;;
46198;SDS011;31928;52.104;10.030;2023-01-19T08:10:26;13.00;;;12.02;;
46198;SDS011;31928;52.104;10.030;2023-01-19T08:12:53;13.48;;;12.13;;
46198;SDS011;31928;52.104;10.030;2023-01-19T08:15:21;12.45;;;11.35;;
46198;SDS011;31928;52.104;10.030;2023-01-19T08:17:54;11.77;;;10.57;;
46198;SDS011;31928;52.104;10.030;2023-01-19T08:20:27;13.02;;;11.85;;
46198;SDS011;31928;52.104;10.030;2023-01-19T08:22:55;10.85;;;9.95;;
46198;SDS011;31928;52.104;10.030;2023-01-19T08:27:59;10.48;;;9.68;;
46198;SDS011;31928;52.104;10.030;2023-01-19T08:30:26;12.82;;;11.63;;
46198;SDS011;31928;52.104;10.030;2023-01-19T08:32:53;14.98;;;13.65;;
46198;SDS011;31928;52.104;10.030;2023-01-19T08:35:23;10.63;;;9.73;;
46198;SDS011;31928;52.104;10.030;2023-01-19T08:37:50;14.50;;;13.30;;
46198;SDS011;31928;52.104;10.030;2023-01-19T08:40:16;11.60;;;10.55;;
46198;SDS011;31928;52.104;10.030;2023-01-19T08:42:43;13.02;;;11.15;;
46198;SDS011;31928;52.104;10.030;2023-01-19T08:45:10;15.35;;;14.25;;
46198;SDS011;31928;52.104;10.030;2023-01-19T08:50:03;16.67;;;15.07;;
46198;SDS011;31928;52.104;10.030;2023-01-19T08:54:57;13.27;;;12.05;;
46198;SDS011;31928;52.104;10.030;2023-01-19T08:57:23;12.43;;;11.13;;
46198;SDS011;31928;52.104;10.030;2023-01-19T08:59:50;14.07;;;12.73;;
46198;SDS011;31928;52.104;10.030;2023-01-19T09:02:16;11.65;;;10.63;;
46198;SDS011;31928;52.104;10.030;2023-01-19T09:04:43;10.65;;;9.65;;
46198;SDS011;31928;52.104;10.030;2023-01-19T09:07:09;17.67;;;15.43;;
46198;SDS011;31928;52.104;10.030;2023-01-19T09:09:36;11.77;;;10.65;;
46198;SDS011;31928;52.104;10.030;2023-01-19T09:12:04;15.25;;;13.95;;
46198;SDS011;31928;52.104;10.030;2023-01-19T09:14:31;11.15;;;10.13;;
46198;SDS011;31928;52.104;10.030;2023-01-19T09:16:57;8.95;;;8.25;;
46198;SDS011;31928;52.104;10.030;2023-01-19T09:19:24;8.98;;;8.25;;
46198;SDS011;31928;52.104;10.030;2023-01-19T09:24:18;9.65;;;8.95;;
46198;SDS011;31928;52.104;10.030;2023-01-19T09:26:45;9.25;;;8.60;;
46198;SDS011;31928;52.104;10.030;2023-01-19T09:29:11;9.50;;;8.80;;
46198;SDS011;31928;52.104;10.030;2023-01-19T09:31:38;8.52;;;7.90;;
46198;SDS011;31928;52.104;10.030;2023-01-19T09:34:06;9.32;;;8.45;;
46198;SDS011;31928;52.104;10.030;2023-01-19T09:36:32;8.77;;;8.13;;
46198;SDS011;31928;52.104;10.030;2023-01-19T09:39:02;10.27;;;9.48;;
46198;SDS011;31928;52.104;10.030;2023-01-19T09:41:28;9.30;;;8.50;;
46198;SDS011;31928;52.104;10.030;2023-01-19T09:44:00;8.90;;;8.02;;
46198;SDS011;31928;52.104;10.030;2023-01-19T09:46:37;8.57;;;7.88;;
46198;SDS011;31928;52.104;10.030;2023-01-19T09:49:10;8.85;;;8.02;;
46198;SDS011;31928;52.104;10.030;2023-01-19T09:51:40;8.23;;;7.53;;
46198;SDS011;31928;52.104;10.030;2023-01-19T09:54:14;8.57;;;7.95;;
46198;SDS011;31928;52.104;10.030;2023-01-19T09:56:46;9.07;;;8.30;;
46198;SDS011;31928;52.104;10.030;2023-01-19T10:01:55;9.10;;;8.32;;
46198;SDS011;31928;52.104;10.030;2023-01-19T10:10:28;7.95;;;7.35;;
46198;SDS011;31928;52.104;10.030;2023-01-19T10:21:01;8.13;;;7.53;;
46198;SDS011;31928;52.104;10.030;2023-01-19T10:26:35;9.50;;;8.90;;
46198;SDS011;31928;52.104;10.030;2023-01-19T10:29:06;7.93;;;7.32;;
46198;SDS011;31928;52.104;10.030;2023-01-19T10:31:37;7.95;;;7.32;;
46198;SDS011;31928;52.104;10.030;2023-01-19T10:34:08;8.43;;;7.82;;
46198;SDS011;31928;52.104;10.030;2023-01-19T10:36:49;7.10;;;6.60;;
46198;SDS011;31928;52.104;10.030;2023-01-19T10:39:27;8.18;;;7.57;;
46198;SDS011;31928;52.104;10.030;2023-01-19T10:41:54;8.43;;;7.82;;
46198;SDS011;31928;52.104;10.030;2023-01-19T10:44:26;9.13;;;8.43;;
46198;SDS011;31928;52.104;10.030;2023-01-19T10:46:55;7.78;;;7.18;;
46198;SDS011;31928;52.104;10.030;2023-01-19T10:52:02;7.78;;;7.20;;
46198;SDS011;31928;52.104;10.030;2023-01-19T10:54:30;7.60;;;7.10;;
46198;SDS011;31928;52.104;10.030;2023-01-19T10:57:00;7.38;;;6.88;;
46198;SDS011;31928;52.104;10.030;2023-01-19T10:59:46;8.13;;;7.53;;
46198;SDS011;31928;52.104;10.030;2023-01-19T11:02:18;7.25;;;6.65;;
46198;SDS011;31928;52.104;10.030;2023-01-19T11:04:57;8.10;;;7.40;;
46198;SDS011;31928;52.104;10.030;2023-01-19T11:12:39;6.68;;;6.22;;
46198;SDS011;31928;52.104;10.030;2023-01-19T11:15:14;10.27;;;9.50;;
46198;SDS011;31928;52.104;10.030;2023-01-19T11:17:46;7.10;;;6.50;;
46198;SDS011;31928;52.104;10.030;2023-01-19T11:22:47;6.75;;;6.28;;
46198;SDS011;31928;52.104;10.030;2023-01-19T11:25:22;8.18;;;7.57;;
46198;SDS011;31928;52.104;10.030;2023-01-19T11:27:53;7.82;;;7.32;;
46198;SDS011;31928;52.104;10.030;2023-01-19T11:30:21;7.70;;;7.10;;
46198;SDS011;31928;52.104;10.030;2023-01-19T11:32:51;5.95;;;5.55;;
46198;SDS011;31928;52.104;10.030;2023-01-19T11:35:31;7.53;;;6.95;;
46198;SDS011;31928;52.104;10.030;2023-01-19T11:38:21;7.25;;;6.75;;
46198;SDS011;31928;52.104;10.030;2023-01-19T11:40:53;6.78;;;6.28;;
46198;SDS011;31928;52.104;10.030;2023-01-19T11:43:22;6.72;;;6.30;;
46198;SDS011;31928;52.104;10.030;2023-01-19T11:45:50;7.00;;;6.60;;
46198;SDS011;31928;52.104;10.030;2023-01-19T11:48:36;6.22;;;5.82;;
46198;SDS011;31928;52.104;10.030;2023-01-19T11:51:09;6.45;;;6.05;;
46198;SDS011;31928;52.104;10.030;2023-01-19T11:53:41;5.70;;;5.38;;
46198;SDS011;31928;52.104;10.030;2023-01-19T11:56:14;7.13;;;6.63;;
46198;SDS011;31928;52.104;10.030;2023-01-19T12:01:16;6.47;;;6.05;;
46198;SDS011;31928;52.104;10.030;2023-01-19T12:03:54;6.45;;;6.07;;
46198;SDS011;31928;52.104;10.030;2023-01-19T12:06:30;6.57;;;6.07;;
46198;SDS011;31928;52.104;10.030;2023-01-19T12:09:11;6.80;;;6.30;;
46198;SDS011;31928;52.104;10.030;2023-01-19T12:11:44;5.78;;;5.47;;
46198;SDS011;31928;52.104;10.030;2023-01-19T12:14:21;6.50;;;6.00;;
46198;SDS011;31928;52.104;10.030;2023-01-19T12:16:53;5.73;;;5.33;;
46198;SDS011;31928;52.104;10.030;2023-01-19T12:19:45;6.25;;;5.75;;
46198;SDS011;31928;52.104;10.030;2023-01-19T12:22:20;6.82;;;6.28;;
46198;SDS011;31928;52.104;10.030;2023-01-19T12:24:53;6.22;;;5.82;;
46198;SDS011;31928;52.104;10.030;2023-01-19T12:27:40;5.43;;;5.13;;
46198;SDS011;31928;52.104;10.030;2023-01-19T12:30:22;5.28;;;4.97;;
46198;SDS011;31928;52.104;10.030;2023-01-19T12:32:51;5.63;;;5.25;;
46198;SDS011;31928;52.104;10.030;2023-01-19T12:43:43;5.63;;;5.33;;
46198;SDS011;31928;52.104;10.030;2023-01-19T12:46:25;6.18;;;5.88;;
46198;SDS011;31928;52.104;10.030;2023-01-19T12:49:02;6.18;;;5.78;;
46198;SDS011;31928;52.104;10.030;2023-01-19T12:51:31;5.32;;;5.03;;
46198;SDS011;31928;52.104;10.030;2023-01-19T12:53:58;5.57;;;5.28;;
46198;SDS011;31928;52.104;10.030;2023-01-19T12:56:33;5.22;;;4.88;;
46198;SDS011;31928;52.104;10.030;2023-01-19T12:59:02;5.53;;;5.22;;
46198;SDS011;31928;52.104;10.030;2023-01-19T13:01:30;4.95;;;4.75;;
46198;SDS011;31928;52.104;10.030;2023-01-19T13:04:01;5.40;;;5.10;;
46198;SDS011;31928;52.104;10.030;2023-01-19T13:07:04;4.53;;;4.32;;
46198;SDS011;31928;52.104;10.030;2023-01-19T13:14:39;4.78;;;4.57;;
46198;SDS011;31928;52.104;10.030;2023-01-19T13:17:24;3.85;;;3.65;;
46198;SDS011;31928;52.104;10.030;2023-01-19T13:19:57;4.30;;;4.00;;
46198;SDS011;31928;52.104;10.030;2023-01-19T13:22:47;3.95;;;3.80;;
46198;SDS011;31928;52.104;10.030;2023-01-19T13:25:33;4.13;;;4.00;;
46198;SDS011;31928;52.104;10.030;2023-01-19T13:28:01;4.20;;;4.10;;
46198;SDS011;31928;52.104;10.030;2023-01-19T13:30:33;4.25;;;4.10;;
46198;SDS011;31928;52.104;10.030;2023-01-19T13:33:05;3.88;;;3.78;;
46198;SDS011;31928;52.104;10.030;2023-01-19T13:35:46;4.10;;;4.00;;
46198;SDS011;31928;52.104;10.030;2023-01-19T13:38:16;4.15;;;4.05;;
46198;SDS011;31928;52.104;10.030;2023-01-19T13:43:13;4.82;;;4.63;;
46198;SDS011;31928;52.104;10.030;2023-01-19T13:45:48;4.15;;;4.05;;
46198;SDS011;31928;52.104;10.030;2023-01-19T13:48:19;4.22;;;4.05;;
46198;SDS011;31928;52.104;10.030;2023-01-19T13:50:58;4.25;;;4.15;;
46198;SDS011;31928;52.104;10.030;2023-01-19T13:53:32;4.10;;;4.00;;
46198;SDS011;31928;52.104;10.030;2023-01-19T13:56:11;3.55;;;3.45;;
46198;SDS011;31928;52.104;10.030;2023-01-19T13:58:42;3.95;;;3.80;;
46198;SDS011;31928;52.104;10.030;2023-01-19T14:01:22;4.70;;;4.50;;
46198;SDS011;31928;52.104;10.030;2023-01-19T14:03:49;4.88;;;4.57;;
46198;SDS011;31928;52.104;10.030;2023-01-19T14:06:22;3.92;;;3.78;;
46198;SDS011;31928;52.104;10.030;2023-01-19T14:09:16;4.32;;;4.13;;
46198;SDS011;31928;52.104;10.030;2023-01-19T14:11:45;4.60;;;4.30;;
46198;SDS011;31928;52.104;10.030;2023-01-19T14:14:32;5.03;;;4.82;;
46198;SDS011;31928;52.104;10.030;2023-01-19T14:19:26;4.32;;;4.13;;
46198;SDS011;31928;52.104;10.030;2023-01-19T14:22:00;5.25;;;5.05;;
46198;SDS011;31928;52.104;10.030;2023-01-19T14:24:29;5.10;;;4.80;;
46198;SDS011;31928;52.104;10.030;2023-01-19T14:27:20;4.95;;;4.65;;
46198;SDS011;31928;52.104;10.030;2023-01-19T14:29:50;6.20;;;5.80;;
46198;SDS011;31928;52.104;10.030;2023-01-19T14:37:22;7.50;;;6.70;;
46198;SDS011;31928;52.104;10.030;2023-01-19T14:42:30;5.40;;;5.00;;
46198;SDS011;31928;52.104;10.030;2023-01-19T14:45:00;5.47;;;4.97;;
46198;SDS011;31928;52.104;10.030;2023-01-19T14:50:05;4.90;;;4.60;;
46198;SDS011;31928;52.104;10.030;2023-01-19T14:52:47;5.97;;;5.47;;
46198;SDS011;31928;52.104;10.030;2023-01-19T14:55:22;5.32;;;4.80;;
46198;SDS011;31928;52.104;10.030;2023-01-19T14:57:53;4.90;;;4.60;;
46198;SDS011;31928;52.104;10.030;2023-01-19T15:00:20;5.30;;;4.90;;
46198;SDS011;31928;52.104;10.030;2023-01-19T15:05:13;5.20;;;4.88;;
46198;SDS011;31928;52.104;10.030;2023-01-19T15:10:09;5.43;;;5.03;;
46198;SDS011;31928;52.104;10.030;2023-01-19T15:12:49;5.82;;;5.38;;
46198;SDS011;31928;52.104;10.030;2023-01-19T15:15:39;5.72;;;5.28;;
46198;SDS011;31928;52.104;10.030;2023-01-19T15:18:04;5.32;;;5.00;;
46198;SDS011;31928;52.104;10.030;2023-01-19T15:20:34;5.88;;;5.47;;
46198;SDS011;31928;52.104;10.030;2023-01-19T15:23:00;6.25;;;5.75;;
46198;SDS011;31928;52.104;10.030;2023-01-19T15:25:27;6.10;;;5.32;;
46198;SDS011;31928;52.104;10.030;2023-01-19T15:27:58;5.25;;;4.95;;
46198;SDS011;31928;52.104;10.030;2023-01-19T15:30:26;6.13;;;5.63;;
46198;SDS011;31928;52.104;10.030;2023-01-19T15:32:56;5.53;;;5.07;;
46198;SDS011;31928;52.104;10.030;2023-01-19T15:35:24;6.28;;;5.80;;
46198;SDS011;31928;52.104;10.030;2023-01-19T15:37:53;6.05;;;5.65;;
46198;SDS011;31928;52.104;10.030;2023-01-19T15:40:20;5.93;;;5.45;;
46198;SDS011;31928;52.104;10.030;2023-01-19T15:42:48;6.65;;;6.13;;
46198;SDS011;31928;52.104;10.030;2023-01-19T15:48:06;8.95;;;8.30;;
46198;SDS011;31928;52.104;10.030;2023-01-19T15:50:35;8.27;;;7.78;;
46198;SDS011;31928;52.104;10.030;2023-01-19T15:53:04;28.75;;;22.98;;
46198;SDS011;31928;52.104;10.030;2023-01-19T15:55:31;14.77;;;12.23;;
46198;SDS011;31928;52.104;10.030;2023-01-19T15:57:57;27.52;;;24.67;;
46198;SDS011;31928;52.104;10.030;2023-01-19T16:00:30;16.45;;;14.85;;
46198;SDS011;31928;52.104;10.030;2023-01-19T16:02:58;21.38;;;17.77;;
46198;SDS011;31928;52.104;10.030;2023-01-19T16:05:25;11.82;;;10.80;;
46198;SDS011;31928;52.104;10.030;2023-01-19T16:08:08;11.80;;;10.50;;
46198;SDS011;31928;52.104;10.030;2023-01-19T16:10:35;8.30;;;7.53;;
46198;SDS011;31928;52.104;10.030;2023-01-19T16:13:02;8.20;;;7.55;;
46198;SDS011;31928;52.104;10.030;2023-01-19T16:15:29;7.32;;;6.32;;
46198;SDS011;31928;52.104;10.030;2023-01-19T16:17:56;6.95;;;6.45;;
46198;SDS011;31928;52.104;10.030;2023-01-19T16:20:23;9.45;;;8.55;;
46198;SDS011;31928;52.104;10.030;2023-01-19T16:25:16;8.85;;;6.70;;
46198;SDS011;31928;52.104;10.030;2023-01-19T16:27:43;7.18;;;6.53;;
46198;SDS011;31928;52.104;10.030;2023-01-19T16:30:10;7.28;;;6.57;;
46198;SDS011;31928;52.104;10.030;2023-01-19T16:32:37;6.32;;;5.82;;
46198;SDS011;31928;52.104;10.030;2023-01-19T16:35:04;7.72;;;6.63;;
46198;SDS011;31928;52.104;10.030;2023-01-19T16:37:31;7.45;;;6.95;;
46198;SDS011;31928;52.104;10.030;2023-01-19T16:39:58;9.43;;;8.73;;
46198;SDS011;31928;52.104;10.030;2023-01-19T16:42:24;7.45;;;6.78;;
46198;SDS011;31928;52.104;10.030;2023-01-19T16:44:51;8.55;;;7.78;;